createdAt,value
2023-04-09T00:00:33.254Z,97969.94
2023-04-09T00:02:59.861Z,97968.44
2023-04-09T00:05:26.757Z,97970.94
2023-04-09T00:07:53.326Z,97966.22
2023-04-09T00:10:19.901Z,97964.69
2023-04-09T00:12:46.449Z,97965.41
2023-04-09T00:15:20.654Z,97962.13
2023-04-09T00:17:54.768Z,97962.34
2023-04-09T00:20:21.387Z,97962.81
2023-04-09T00:22:47.994Z,97965.91
2023-04-09T00:25:14.612Z,97958.91
2023-04-09T00:27:41.178Z,97959.31
2023-04-09T00:30:07.722Z,97955.22
2023-04-09T00:32:34.316Z,97955.97
2023-04-09T00:35:00.870Z,97956.84
2023-04-09T00:37:27.454Z,97947.69
2023-04-09T00:39:54.007Z,97955.22
2023-04-09T00:42:20.612Z,97942.13
2023-04-09T00:44:47.164Z,97949.97
2023-04-09T00:47:13.748Z,97948.38
2023-04-09T00:49:40.304Z,97947.56
2023-04-09T00:52:06.882Z,97955.06
2023-04-09T00:54:33.407Z,97955.63
2023-04-09T00:57:00.053Z,97948.91
2023-04-09T00:59:26.607Z,97959.22
2023-04-09T01:01:53.227Z,97962.81
2023-04-09T01:04:19.888Z,97950.69
2023-04-09T01:06:46.479Z,97950.34
2023-04-09T01:09:13.026Z,97953.66
2023-04-09T01:11:39.612Z,97955.22
2023-04-09T01:14:06.355Z,97962.34
2023-04-09T01:16:32.925Z,97966.28
2023-04-09T01:18:59.517Z,97961.41
2023-04-09T01:21:26.080Z,97960.00
2023-04-09T01:23:52.690Z,97958.41
2023-04-09T01:26:19.329Z,97954.34
2023-04-09T01:28:45.932Z,97951.38
2023-04-09T01:31:12.489Z,97952.81
2023-04-09T01:33:39.067Z,97952.63
2023-04-09T01:36:05.686Z,97942.34
2023-04-09T01:38:32.289Z,97949.97
2023-04-09T01:40:58.847Z,97944.09
2023-04-09T01:43:25.565Z,97939.03
2023-04-09T01:45:52.174Z,97941.81
2023-04-09T01:48:18.810Z,97940.47
2023-04-09T01:50:45.496Z,97941.66
2023-04-09T01:53:12.045Z,97940.72
2023-04-09T01:55:38.621Z,97936.63
2023-04-09T01:58:05.194Z,97929.44
2023-04-09T02:00:31.805Z,97933.34
2023-04-09T02:02:58.593Z,97942.34
2023-04-09T02:05:25.323Z,97956.34
2023-04-09T02:07:51.872Z,97942.03
2023-04-09T02:10:18.426Z,97936.97
2023-04-09T02:12:44.982Z,97947.56
2023-04-09T02:15:11.568Z,97943.81
2023-04-09T02:17:38.122Z,97936.81
2023-04-09T02:20:04.688Z,97935.84
2023-04-09T02:22:31.427Z,97934.56
2023-04-09T02:24:58.003Z,97939.31
2023-04-09T02:27:24.546Z,97934.75
2023-04-09T02:29:51.478Z,97941.59
2023-04-09T02:32:18.081Z,97941.94
2023-04-09T02:34:44.643Z,97939.97
2023-04-09T02:37:11.201Z,97931.59
2023-04-09T02:39:37.786Z,97926.84
2023-04-09T02:42:05.185Z,97930.56
2023-04-09T02:44:31.744Z,97930.84
2023-04-09T02:46:58.318Z,97929.19
2023-04-09T02:49:24.886Z,97925.09
2023-04-09T02:51:51.436Z,97929.03
2023-04-09T02:54:18.009Z,97926.31
2023-04-09T02:56:44.736Z,97926.47
2023-04-09T02:59:11.288Z,97927.78
2023-04-09T03:01:37.976Z,97922.00
2023-04-09T03:04:04.714Z,97923.16
2023-04-09T03:06:31.305Z,97919.09
2023-04-09T03:08:57.916Z,97915.09
2023-04-09T03:11:27.319Z,97912.94
2023-04-09T03:13:53.921Z,97915.94
2023-04-09T03:16:22.854Z,97915.09
2023-04-09T03:18:50.141Z,97917.59
2023-04-09T03:21:16.832Z,97917.00
2023-04-09T03:23:43.493Z,97913.06
2023-04-09T03:26:10.036Z,97914.03
2023-04-09T03:28:36.602Z,97920.28
2023-04-09T03:31:03.191Z,97912.75
2023-04-09T03:33:29.829Z,97913.56
2023-04-09T03:35:56.554Z,97916.84
2023-04-09T03:38:23.164Z,97911.09
2023-04-09T03:40:49.723Z,97911.72
2023-04-09T03:43:16.298Z,97909.09
2023-04-09T03:45:42.840Z,97910.09
2023-04-09T03:48:09.406Z,97912.25
2023-04-09T03:50:35.973Z,97910.91
2023-04-09T03:53:02.553Z,97908.72
2023-04-09T03:55:29.112Z,97917.91
2023-04-09T03:57:55.778Z,97909.75
2023-04-09T04:00:22.357Z,97917.78
2023-04-09T04:02:49.249Z,97918.13
2023-04-09T04:05:16.008Z,97916.31
2023-04-09T04:07:42.564Z,97917.44
2023-04-09T04:10:09.120Z,97919.94
2023-04-09T04:12:36.699Z,97925.50
2023-04-09T04:15:03.279Z,97922.22
2023-04-09T04:17:29.926Z,97926.50
2023-04-09T04:19:56.622Z,97933.34
2023-04-09T04:22:24.895Z,97925.63
2023-04-09T04:24:53.152Z,97926.91
2023-04-09T04:27:19.826Z,97927.91
2023-04-09T04:29:47.008Z,97931.03
2023-04-09T04:32:13.558Z,97931.97
2023-04-09T04:34:40.154Z,97929.88
2023-04-09T04:37:06.726Z,97938.34
2023-04-09T04:39:33.289Z,97937.69
2023-04-09T04:41:59.918Z,97934.66
2023-04-09T04:44:26.680Z,97937.56
2023-04-09T04:46:53.230Z,97935.47
2023-04-09T04:49:19.952Z,97939.25
2023-04-09T04:51:46.538Z,97933.13
2023-04-09T04:54:13.130Z,97940.19
2023-04-09T04:56:40.589Z,97933.84
2023-04-09T04:59:07.181Z,97936.09
2023-04-09T05:01:33.858Z,97938.25
2023-04-09T05:04:00.549Z,97931.91
2023-04-09T05:06:27.634Z,97936.69
2023-04-09T05:08:54.539Z,97933.72
2023-04-09T05:11:21.294Z,97940.25
2023-04-09T05:13:47.861Z,97937.00
2023-04-09T05:16:14.418Z,97942.91
2023-04-09T05:18:40.977Z,97941.28
2023-04-09T05:21:07.566Z,97939.50
2023-04-09T05:23:34.152Z,97939.22
2023-04-09T05:26:00.835Z,97934.31
2023-04-09T05:28:27.432Z,97947.41
2023-04-09T05:30:54.251Z,97953.44
2023-04-09T05:33:20.825Z,97947.41
2023-04-09T05:35:47.531Z,97952.00
2023-04-09T05:38:14.132Z,97946.16
2023-04-09T05:40:40.725Z,97949.25
2023-04-09T05:43:07.279Z,97957.13
2023-04-09T05:45:33.860Z,97957.94
2023-04-09T05:48:00.735Z,97957.72
2023-04-09T05:50:27.430Z,97962.28
2023-04-09T05:52:53.998Z,97969.56
2023-04-09T05:55:20.586Z,97968.25
2023-04-09T05:57:47.189Z,97969.56
2023-04-09T06:00:13.722Z,97976.81
2023-04-09T06:02:40.396Z,97973.19
2023-04-09T06:05:07.000Z,97974.84
2023-04-09T06:07:33.553Z,97977.31
2023-04-09T06:10:00.127Z,97970.25
2023-04-09T06:12:27.009Z,97970.09
2023-04-09T06:14:53.570Z,97968.63
2023-04-09T06:17:20.263Z,97978.94
2023-04-09T06:19:46.828Z,97975.16
2023-04-09T06:22:13.417Z,97974.53
2023-04-09T06:24:40.084Z,97966.63
2023-04-09T06:27:06.792Z,97972.34
2023-04-09T06:29:33.333Z,97982.69
2023-04-09T06:31:59.886Z,97986.63
2023-04-09T06:34:26.441Z,97986.63
2023-04-09T06:36:53.030Z,97986.88
2023-04-09T06:39:19.703Z,97987.88
2023-04-09T06:41:46.252Z,97989.56
2023-04-09T06:44:12.817Z,97982.28
2023-04-09T06:46:39.379Z,97992.16
2023-04-09T06:49:05.967Z,97990.22
2023-04-09T06:51:32.618Z,97992.84
2023-04-09T06:53:59.202Z,97990.13
2023-04-09T06:56:25.901Z,97993.56
2023-04-09T06:58:52.619Z,98000.88
2023-04-09T07:01:21.514Z,98004.91
2023-04-09T07:03:49.271Z,98001.22
2023-04-09T07:06:15.937Z,98007.50
2023-04-09T07:08:42.488Z,98008.81
2023-04-09T07:11:09.080Z,98014.38
2023-04-09T07:13:35.977Z,98011.56
2023-04-09T07:16:02.604Z,98014.31
2023-04-09T07:18:29.273Z,98022.25
2023-04-09T07:20:55.874Z,98019.47
2023-04-09T07:23:22.484Z,98019.13
2023-04-09T07:25:49.183Z,98012.88
2023-04-09T07:28:15.753Z,98015.81
2023-04-09T07:30:42.377Z,98012.41
2023-04-09T07:33:09.287Z,98026.34
2023-04-09T07:35:36.316Z,98019.78
2023-04-09T07:38:02.895Z,98026.16
2023-04-09T07:40:29.483Z,98024.00
2023-04-09T07:42:56.189Z,98027.97
2023-04-09T07:45:22.745Z,98025.97
2023-04-09T07:47:49.352Z,98028.91
2023-04-09T07:50:16.135Z,98028.19
2023-04-09T07:52:42.719Z,98022.44
2023-04-09T07:55:09.270Z,98031.00
2023-04-09T07:57:35.871Z,98023.13
2023-04-09T08:00:02.478Z,98028.34
2023-04-09T08:02:29.289Z,98023.53
2023-04-09T08:04:56.039Z,98028.94
2023-04-09T08:07:22.771Z,98033.06
2023-04-09T08:09:49.378Z,98035.75
2023-04-09T08:12:15.940Z,98035.59
2023-04-09T08:14:42.477Z,98030.91
2023-04-09T08:17:09.061Z,98031.31
2023-04-09T08:19:35.658Z,98040.78
2023-04-09T08:22:02.198Z,98050.13
2023-04-09T08:24:28.857Z,98047.09
2023-04-09T08:26:55.412Z,98043.47
2023-04-09T08:29:22.006Z,98043.94
2023-04-09T08:31:48.906Z,98044.13
2023-04-09T08:34:15.552Z,98047.06
2023-04-09T08:36:42.148Z,98053.41
2023-04-09T08:39:08.733Z,98053.19
2023-04-09T08:41:35.273Z,98053.81
2023-04-09T08:44:01.815Z,98053.81
2023-04-09T08:46:28.348Z,98062.16
2023-04-09T08:48:55.072Z,98063.69
2023-04-09T08:51:21.819Z,98055.34
2023-04-09T08:53:48.373Z,98060.41
2023-04-09T08:56:15.043Z,98065.22
2023-04-09T08:58:41.622Z,98069.00
2023-04-09T09:01:08.322Z,98075.25
2023-04-09T09:03:35.039Z,98071.88
2023-04-09T09:06:01.782Z,98073.03
2023-04-09T09:08:28.348Z,98076.25
2023-04-09T09:10:55.010Z,98073.41
2023-04-09T09:13:21.617Z,98074.75
2023-04-09T09:15:48.166Z,98077.69
2023-04-09T09:18:14.806Z,98082.41
2023-04-09T09:20:41.372Z,98086.22
2023-04-09T09:23:07.926Z,98085.84
2023-04-09T09:25:34.501Z,98086.25
2023-04-09T09:28:01.058Z,98081.81
2023-04-09T09:30:27.637Z,98088.22
2023-04-09T09:32:54.232Z,98097.50
2023-04-09T09:35:20.886Z,98099.50
2023-04-09T09:37:47.484Z,98093.59
2023-04-09T09:40:14.056Z,98093.25
2023-04-09T09:42:40.636Z,98095.91
2023-04-09T09:45:07.244Z,98099.25
2023-04-09T09:47:33.847Z,98099.03
2023-04-09T09:50:00.468Z,98097.72
2023-04-09T09:52:27.204Z,98103.19
2023-04-09T09:54:53.815Z,98094.44
2023-04-09T09:57:20.419Z,98096.03
2023-04-09T09:59:47.019Z,98097.88
2023-04-09T10:02:13.730Z,98100.03
2023-04-09T10:04:40.384Z,98092.94
2023-04-09T10:07:07.026Z,98091.16
2023-04-09T10:09:34.569Z,98085.97
2023-04-09T10:12:01.132Z,98084.63
2023-04-09T10:14:27.733Z,98078.28
2023-04-09T10:16:54.290Z,98085.06
2023-04-09T10:19:20.979Z,98076.81
2023-04-09T10:21:47.663Z,98074.47
2023-04-09T10:24:14.243Z,98076.16
2023-04-09T10:26:40.891Z,98078.59
2023-04-09T10:29:07.430Z,98080.59
2023-04-09T10:31:34.047Z,98069.44
2023-04-09T10:34:00.694Z,98072.00
2023-04-09T10:36:27.309Z,98064.91
2023-04-09T10:38:54.076Z,98061.16
2023-04-09T10:41:20.740Z,98065.78
2023-04-09T10:43:47.296Z,98055.00
2023-04-09T10:46:13.973Z,98051.09
2023-04-09T10:48:40.561Z,98049.03
2023-04-09T10:51:07.135Z,98049.41
2023-04-09T10:53:33.712Z,98053.66
2023-04-09T10:56:00.335Z,98038.94
2023-04-09T10:58:26.892Z,98039.63
2023-04-09T11:00:53.504Z,98041.47
2023-04-09T11:03:20.110Z,98042.16
2023-04-09T11:05:46.732Z,98043.78
2023-04-09T11:08:13.306Z,98042.94
2023-04-09T11:10:39.856Z,98047.59
2023-04-09T11:13:06.443Z,98046.16
2023-04-09T11:15:33.020Z,98052.97
2023-04-09T11:17:59.630Z,98048.78
2023-04-09T11:20:26.272Z,98046.44
2023-04-09T11:22:53.017Z,98038.00
2023-04-09T11:25:19.612Z,98037.00
2023-04-09T11:27:46.909Z,98038.34
2023-04-09T11:30:13.727Z,98028.19
2023-04-09T11:32:40.331Z,98031.94
2023-04-09T11:35:06.936Z,98026.97
2023-04-09T11:37:33.515Z,98024.38
2023-04-09T11:40:00.257Z,98023.88
2023-04-09T11:42:26.871Z,98019.31
2023-04-09T11:44:53.449Z,98018.19
2023-04-09T11:47:20.028Z,98031.06
2023-04-09T11:49:46.606Z,98031.47
2023-04-09T11:52:13.195Z,98028.22
2023-04-09T11:54:39.764Z,98024.81
2023-04-09T11:57:06.783Z,98023.56
2023-04-09T11:59:33.381Z,98026.81
2023-04-09T12:02:00.187Z,98020.25
2023-04-09T12:04:26.978Z,98026.91
2023-04-09T12:06:53.694Z,98017.84
2023-04-09T12:09:20.241Z,98017.41
2023-04-09T12:11:46.887Z,98015.06
2023-04-09T12:14:13.457Z,98012.88
2023-04-09T12:16:40.038Z,98005.34
2023-04-09T12:19:08.805Z,98001.84
2023-04-09T12:21:35.395Z,98002.34
2023-04-09T12:24:01.987Z,98006.03
2023-04-09T12:26:28.610Z,98009.97
2023-04-09T12:28:55.195Z,97999.66
2023-04-09T12:31:21.813Z,98001.22
2023-04-09T12:33:48.406Z,98003.47
2023-04-09T12:36:14.964Z,98001.19
2023-04-09T12:38:41.518Z,98019.03
2023-04-09T12:41:08.078Z,98022.75
2023-04-09T12:43:34.677Z,98021.91
2023-04-09T12:46:01.271Z,98032.56
2023-04-09T12:48:28.544Z,98047.53
2023-04-09T12:50:55.322Z,98041.03
2023-04-09T12:53:21.885Z,98052.59
2023-04-09T12:55:48.453Z,98050.00
2023-04-09T12:58:15.080Z,98058.81
2023-04-09T13:00:41.908Z,98048.19
2023-04-09T13:03:08.702Z,98053.88
2023-04-09T13:05:35.432Z,98048.81
2023-04-09T13:08:02.056Z,98042.38
2023-04-09T13:10:29.890Z,98043.38
2023-04-09T13:12:56.756Z,98049.38
2023-04-09T13:15:23.396Z,98049.72
2023-04-09T13:17:50.089Z,98052.94
2023-04-09T13:20:16.988Z,98053.97
2023-04-09T13:22:43.545Z,98051.56
2023-04-09T13:25:10.103Z,98046.47
2023-04-09T13:27:36.688Z,98053.16
2023-04-09T13:30:03.666Z,98052.75
2023-04-09T13:32:30.356Z,98046.72
2023-04-09T13:34:56.965Z,98043.72
2023-04-09T13:37:23.520Z,98048.44
2023-04-09T13:39:50.269Z,98046.13
2023-04-09T13:42:17.235Z,98043.09
2023-04-09T13:44:43.801Z,98043.19
2023-04-09T13:47:10.397Z,98039.75
2023-04-09T13:49:36.946Z,98049.56
2023-04-09T13:52:03.553Z,98043.59
2023-04-09T13:54:30.126Z,98044.19
2023-04-09T13:56:56.681Z,98048.38
2023-04-09T13:59:23.274Z,98049.00
2023-04-09T14:01:49.958Z,98050.75
2023-04-09T14:04:16.593Z,98046.41
2023-04-09T14:06:43.178Z,98044.50
2023-04-09T14:09:09.856Z,98047.13
2023-04-09T14:11:36.440Z,98052.22
2023-04-09T14:14:03.022Z,98057.03
2023-04-09T14:16:29.644Z,98055.03
2023-04-09T14:18:56.285Z,98053.69
2023-04-09T14:21:22.868Z,98065.06
2023-04-09T14:23:49.446Z,98053.56
2023-04-09T14:26:15.989Z,98046.31
2023-04-09T14:28:42.623Z,98041.16
2023-04-09T14:31:09.411Z,98041.72
2023-04-09T14:33:36.049Z,98042.66
2023-04-09T14:36:02.658Z,98034.53
2023-04-09T14:38:29.325Z,98028.59
2023-04-09T14:40:56.247Z,98038.38
2023-04-09T14:43:22.800Z,98044.72
2023-04-09T14:45:49.336Z,98037.09
2023-04-09T14:48:15.984Z,98041.28
2023-04-09T14:50:42.529Z,98033.38
2023-04-09T14:53:09.110Z,98034.31
2023-04-09T14:55:35.673Z,98039.84
2023-04-09T14:58:02.250Z,98036.25
2023-04-09T15:00:28.818Z,98035.19
2023-04-09T15:02:55.554Z,98028.94
2023-04-09T15:05:22.294Z,98030.13
2023-04-09T15:07:48.890Z,98035.69
2023-04-09T15:10:15.480Z,98034.19
2023-04-09T15:12:42.080Z,98038.03
2023-04-09T15:15:09.724Z,98044.72
2023-04-09T15:17:36.338Z,98040.03
2023-04-09T15:20:02.910Z,98045.75
2023-04-09T15:22:29.503Z,98044.47
2023-04-09T15:24:56.058Z,98045.53
2023-04-09T15:27:22.609Z,98040.94
2023-04-09T15:29:49.192Z,98047.19
2023-04-09T15:32:15.830Z,98051.47
2023-04-09T15:34:42.389Z,98040.38
2023-04-09T15:37:08.949Z,98043.19
2023-04-09T15:39:35.508Z,98047.75
2023-04-09T15:42:02.046Z,98045.09
2023-04-09T15:44:28.694Z,98044.47
2023-04-09T15:46:55.369Z,98049.06
2023-04-09T15:49:21.975Z,98056.44
2023-04-09T15:51:48.555Z,98049.78
2023-04-09T15:54:15.177Z,98051.59
2023-04-09T15:56:41.785Z,98057.06
2023-04-09T15:59:08.718Z,98061.78
2023-04-09T16:01:35.671Z,98061.00
2023-04-09T16:04:02.613Z,98059.72
2023-04-09T16:06:29.202Z,98062.66
2023-04-09T16:08:55.859Z,98062.94
2023-04-09T16:11:22.601Z,98058.19
2023-04-09T16:13:49.151Z,98058.59
2023-04-09T16:16:15.742Z,98063.38
2023-04-09T16:18:42.361Z,98066.63
2023-04-09T16:21:08.984Z,98059.69
2023-04-09T16:23:35.607Z,98062.56
2023-04-09T16:26:02.206Z,98069.81
2023-04-09T16:28:28.844Z,98064.56
2023-04-09T16:30:55.459Z,98065.72
2023-04-09T16:33:22.018Z,98062.78
2023-04-09T16:35:48.676Z,98068.09
2023-04-09T16:38:15.274Z,98069.97
2023-04-09T16:40:41.905Z,98070.28
2023-04-09T16:43:08.466Z,98070.94
2023-04-09T16:45:35.053Z,98063.34
2023-04-09T16:48:01.670Z,98064.81
2023-04-09T16:50:28.317Z,98069.28
2023-04-09T16:52:54.898Z,98066.34
2023-04-09T16:55:21.484Z,98073.06
2023-04-09T16:57:48.058Z,98068.81
2023-04-09T17:00:14.797Z,98082.69
2023-04-09T17:02:41.465Z,98082.84
2023-04-09T17:05:08.209Z,98079.97
2023-04-09T17:07:34.879Z,98078.97
2023-04-09T17:10:01.898Z,98078.81
2023-04-09T17:12:28.901Z,98076.97
2023-04-09T17:14:55.629Z,98078.44
2023-04-09T17:17:22.250Z,98084.19
2023-04-09T17:19:48.929Z,98078.13
2023-04-09T17:22:15.517Z,98081.91
2023-04-09T17:24:42.102Z,98081.91
2023-04-09T17:27:08.695Z,98079.78
2023-04-09T17:29:35.277Z,98082.13
2023-04-09T17:32:01.852Z,98086.53
2023-04-09T17:34:28.398Z,98090.97
2023-04-09T17:36:54.942Z,98088.00
2023-04-09T17:39:21.506Z,98089.00
2023-04-09T17:41:48.041Z,98104.09
2023-04-09T17:44:14.611Z,98103.13
2023-04-09T17:46:41.300Z,98105.75
2023-04-09T17:49:07.897Z,98108.00
2023-04-09T17:51:34.486Z,98100.16
2023-04-09T17:54:01.143Z,98101.78
2023-04-09T17:56:27.704Z,98099.31
2023-04-09T17:58:54.385Z,98101.97
2023-04-09T18:01:21.448Z,98108.41
2023-04-09T18:03:48.316Z,98110.69
2023-04-09T18:06:15.056Z,98115.94
2023-04-09T18:08:41.636Z,98111.66
2023-04-09T18:11:12.719Z,98117.25
2023-04-09T18:13:40.282Z,98116.59
2023-04-09T18:16:06.906Z,98119.22
2023-04-09T18:18:33.556Z,98115.47
2023-04-09T18:21:00.163Z,98124.66
2023-04-09T18:23:27.093Z,98130.22
2023-04-09T18:25:53.636Z,98127.94
2023-04-09T18:28:20.195Z,98132.69
2023-04-09T18:30:46.719Z,98126.47
2023-04-09T18:33:13.273Z,98133.69
2023-04-09T18:35:39.871Z,98131.06
2023-04-09T18:38:06.623Z,98129.06
2023-04-09T18:40:33.163Z,98138.13
2023-04-09T18:42:59.755Z,98137.59
2023-04-09T18:45:26.306Z,98131.53
2023-04-09T18:47:52.880Z,98142.88
2023-04-09T18:50:22.510Z,98152.06
2023-04-09T18:52:49.090Z,98152.06
2023-04-09T18:55:15.667Z,98143.56
2023-04-09T18:57:42.264Z,98146.00
2023-04-09T19:00:08.894Z,98145.84
2023-04-09T19:02:35.798Z,98146.66
2023-04-09T19:05:02.684Z,98149.94
2023-04-09T19:07:29.393Z,98149.63
2023-04-09T19:09:55.940Z,98154.22
2023-04-09T19:12:22.556Z,98159.31
2023-04-09T19:14:49.208Z,98156.34
2023-04-09T19:17:15.780Z,98164.41
2023-04-09T19:19:42.335Z,98164.38
2023-04-09T19:22:08.933Z,98169.47
2023-04-09T19:24:35.547Z,98168.34
2023-04-09T19:27:02.119Z,98163.22
2023-04-09T19:29:28.754Z,98163.91
2023-04-09T19:31:55.388Z,98158.00
2023-04-09T19:34:22.063Z,98160.94
2023-04-09T19:36:48.671Z,98161.59
2023-04-09T19:39:15.225Z,98158.81
2023-04-09T19:41:41.840Z,98164.88
2023-04-09T19:44:08.401Z,98167.34
2023-04-09T19:46:35.002Z,98161.72
2023-04-09T19:49:02.736Z,98164.03
2023-04-09T19:51:29.284Z,98163.53
2023-04-09T19:53:55.845Z,98153.72
2023-04-09T19:56:22.469Z,98162.88
2023-04-09T19:58:49.057Z,98161.13
2023-04-09T20:01:15.668Z,98160.13
2023-04-09T20:03:42.385Z,98151.91
2023-04-09T20:06:09.025Z,98158.94
2023-04-09T20:08:35.946Z,98154.38
2023-04-09T20:11:02.502Z,98160.28
2023-04-09T20:13:29.070Z,98157.97
2023-04-09T20:15:55.602Z,98149.41
2023-04-09T20:18:22.172Z,98152.72
2023-04-09T20:20:48.730Z,98146.00
2023-04-09T20:23:15.464Z,98156.66
2023-04-09T20:25:42.006Z,98154.19
2023-04-09T20:28:08.577Z,98157.63
2023-04-09T20:30:35.225Z,98163.53
2023-04-09T20:33:01.839Z,98156.81
2023-04-09T20:35:28.435Z,98158.81
2023-04-09T20:37:54.991Z,98168.16
2023-04-09T20:40:21.588Z,98163.22
2023-04-09T20:42:48.188Z,98162.72
2023-04-09T20:45:14.740Z,98161.88
2023-04-09T20:47:41.343Z,98153.16
2023-04-09T20:50:07.893Z,98160.56
2023-04-09T20:52:34.502Z,98159.72
2023-04-09T20:55:01.078Z,98162.19
2023-04-09T20:57:27.644Z,98159.41
2023-04-09T20:59:54.211Z,98161.84
2023-04-09T21:02:20.806Z,98156.09
2023-04-09T21:04:47.481Z,98154.56
2023-04-09T21:07:14.094Z,98154.19
2023-04-09T21:09:40.699Z,98157.41
2023-04-09T21:12:07.334Z,98160.03
2023-04-09T21:14:36.012Z,98167.22
2023-04-09T21:17:02.646Z,98161.59
2023-04-09T21:19:29.406Z,98161.97
2023-04-09T21:21:56.059Z,98159.91
2023-04-09T21:24:24.718Z,98163.41
2023-04-09T21:26:52.283Z,98163.97
2023-04-09T21:29:19.035Z,98168.06
2023-04-09T21:31:45.584Z,98162.22
2023-04-09T21:34:12.174Z,98170.84
2023-04-09T21:36:38.727Z,98162.66
2023-04-09T21:39:05.319Z,98161.41
2023-04-09T21:41:31.971Z,98165.00
2023-04-09T21:43:58.518Z,98158.50
2023-04-09T21:46:25.211Z,98163.41
2023-04-09T21:48:52.030Z,98168.34
2023-04-09T21:51:18.884Z,98172.13
2023-04-09T21:53:45.434Z,98165.13
2023-04-09T21:56:12.064Z,98173.16
2023-04-09T21:58:38.625Z,98170.47
2023-04-09T22:01:06.114Z,98176.56
2023-04-09T22:03:32.995Z,98179.16
2023-04-09T22:05:59.685Z,98176.75
2023-04-09T22:08:26.246Z,98185.56
2023-04-09T22:10:52.770Z,98181.81
2023-04-09T22:13:19.375Z,98180.16
2023-04-09T22:15:45.968Z,98181.28
2023-04-09T22:18:12.539Z,98183.44
2023-04-09T22:20:39.108Z,98187.69
2023-04-09T22:23:05.710Z,98183.94
2023-04-09T22:25:32.274Z,98187.19
2023-04-09T22:27:58.877Z,98186.84
2023-04-09T22:30:25.453Z,98190.28
2023-04-09T22:32:52.191Z,98185.84
2023-04-09T22:35:18.812Z,98195.84
2023-04-09T22:37:45.534Z,98189.63
2023-04-09T22:40:12.204Z,98194.88
2023-04-09T22:42:38.808Z,98192.22
2023-04-09T22:45:05.487Z,98191.09
2023-04-09T22:47:32.059Z,98194.84
2023-04-09T22:49:58.701Z,98195.34
2023-04-09T22:52:25.296Z,98189.97
2023-04-09T22:54:51.971Z,98194.84
2023-04-09T22:57:18.546Z,98193.03
2023-04-09T22:59:45.138Z,98194.22
2023-04-09T23:02:11.784Z,98197.03
2023-04-09T23:04:38.471Z,98194.09
2023-04-09T23:07:05.050Z,98194.56
2023-04-09T23:09:31.625Z,98193.53
2023-04-09T23:11:58.226Z,98195.47
2023-04-09T23:14:25.685Z,98193.94
2023-04-09T23:16:52.228Z,98192.44
2023-04-09T23:19:18.851Z,98197.38
2023-04-09T23:21:45.553Z,98195.94
2023-04-09T23:24:12.116Z,98191.22
2023-04-09T23:26:38.752Z,98196.16
2023-04-09T23:29:05.296Z,98182.38
2023-04-09T23:31:31.898Z,98189.25
2023-04-09T23:33:58.579Z,98191.22
2023-04-09T23:36:25.128Z,98192.97
2023-04-09T23:38:51.690Z,98195.13
2023-04-09T23:41:18.330Z,98197.25
2023-04-09T23:43:44.935Z,98196.41
2023-04-09T23:46:11.497Z,98196.41
2023-04-09T23:48:38.234Z,98190.50
2023-04-09T23:51:04.785Z,98194.13
2023-04-09T23:53:31.376Z,98189.81
2023-04-09T23:55:57.946Z,98185.56
2023-04-09T23:58:24.613Z,98183.13
